sensor_id;sensor_type;location;lat;lon;timestamp;pressure;altitude;pressure_sealevel;temperature;humidity
46223;BME280;31943;51.410;7.564;2023-12-04T00:00:50;100142.34;;;1.88;62.36
46223;BME280;31943;51.410;7.564;2023-12-04T00:03:16;100145.13;;;1.92;62.13
46223;BME280;31943;51.410;7.564;2023-12-04T00:05:42;100128.00;;;1.93;62.13
46223;BME280;31943;51.410;7.564;2023-12-04T00:08:08;100127.22;;;1.95;62.00
46223;BME280;31943;51.410;7.564;2023-12-04T00:10:36;100121.22;;;1.95;61.92
46223;BME280;31943;51.410;7.564;2023-12-04T00:13:02;100121.06;;;1.92;61.96
46223;BME280;31943;51.410;7.564;2023-12-04T00:15:28;100122.78;;;1.91;61.90
46223;BME280;31943;51.410;7.564;2023-12-04T00:17:54;100111.69;;;1.92;61.89
46223;BME280;31943;51.410;7.564;2023-12-04T00:20:19;100113.41;;;1.93;61.81
46223;BME280;31943;51.410;7.564;2023-12-04T00:22:45;100106.63;;;1.95;61.58
46223;BME280;31943;51.410;7.564;2023-12-04T00:25:11;100100.47;;;1.92;61.12
46223;BME280;31943;51.410;7.564;2023-12-04T00:27:38;100106.47;;;1.91;61.35
46223;BME280;31943;51.410;7.564;2023-12-04T00:30:04;100095.22;;;1.89;61.20
46223;BME280;31943;51.410;7.564;2023-12-04T00:32:30;100090.94;;;1.89;61.34
46223;BME280;31943;51.410;7.564;2023-12-04T00:34:56;100109.03;;;1.91;61.14
46223;BME280;31943;51.410;7.564;2023-12-04T00:37:21;100085.25;;;1.96;61.13
46223;BME280;31943;51.410;7.564;2023-12-04T00:39:47;100081.75;;;1.94;60.74
46223;BME280;31943;51.410;7.564;2023-12-04T00:42:13;100081.84;;;1.97;60.53
46223;BME280;31943;51.410;7.564;2023-12-04T00:44:40;100099.00;;;1.97;60.34
46223;BME280;31943;51.410;7.564;2023-12-04T00:47:06;100087.75;;;1.95;59.67
46223;BME280;31943;51.410;7.564;2023-12-04T00:49:32;100095.72;;;2.01;59.70
46223;BME280;31943;51.410;7.564;2023-12-04T00:51:57;100084.63;;;2.02;59.57
46223;BME280;31943;51.410;7.564;2023-12-04T00:54:23;100091.53;;;2.03;59.40
46223;BME280;31943;51.410;7.564;2023-12-04T00:56:48;100092.47;;;2.05;59.50
46223;BME280;31943;51.410;7.564;2023-12-04T00:59:14;100087.47;;;2.08;59.36
46223;BME280;31943;51.410;7.564;2023-12-04T01:01:41;100092.69;;;2.10;58.82
46223;BME280;31943;51.410;7.564;2023-12-04T01:04:06;100081.38;;;2.06;59.02
46223;BME280;31943;51.410;7.564;2023-12-04T01:06:32;100084.25;;;2.14;59.21
46223;BME280;31943;51.410;7.564;2023-12-04T01:08:57;100067.81;;;2.10;58.96
46223;BME280;31943;51.410;7.564;2023-12-04T01:11:23;100064.47;;;2.13;58.89
46223;BME280;31943;51.410;7.564;2023-12-04T01:13:49;100069.75;;;2.16;58.76
46223;BME280;31943;51.410;7.564;2023-12-04T01:16:15;100064.53;;;2.14;58.08
46223;BME280;31943;51.410;7.564;2023-12-04T01:18:42;100062.91;;;2.16;58.12
46223;BME280;31943;51.410;7.564;2023-12-04T01:21:08;100060.50;;;2.21;58.31
46223;BME280;31943;51.410;7.564;2023-12-04T01:23:34;100058.06;;;2.24;58.41
46223;BME280;31943;51.410;7.564;2023-12-04T01:25:59;100057.13;;;2.22;57.85
46223;BME280;31943;51.410;7.564;2023-12-04T01:28:25;100061.59;;;2.26;57.97
46223;BME280;31943;51.410;7.564;2023-12-04T01:30:51;100049.34;;;2.21;57.67
46223;BME280;31943;51.410;7.564;2023-12-04T01:33:16;100050.41;;;2.26;57.78
46223;BME280;31943;51.410;7.564;2023-12-04T01:35:44;100047.06;;;2.28;58.01
46223;BME280;31943;51.410;7.564;2023-12-04T01:38:10;100033.56;;;2.34;58.03
46223;BME280;31943;51.410;7.564;2023-12-04T01:40:35;100033.56;;;2.34;57.57
46223;BME280;31943;51.410;7.564;2023-12-04T01:43:01;100026.72;;;2.34;57.58
46223;BME280;31943;51.410;7.564;2023-12-04T01:45:27;100036.22;;;2.35;57.60
46223;BME280;31943;51.410;7.564;2023-12-04T01:47:53;100033.63;;;2.35;57.42
46223;BME280;31943;51.410;7.564;2023-12-04T01:50:20;100029.19;;;2.31;56.56
46223;BME280;31943;51.410;7.564;2023-12-04T01:52:48;100020.63;;;2.32;56.82
46223;BME280;31943;51.410;7.564;2023-12-04T01:55:15;100013.06;;;2.37;56.90
46223;BME280;31943;51.410;7.564;2023-12-04T01:57:41;100014.91;;;2.40;56.96
46223;BME280;31943;51.410;7.564;2023-12-04T02:00:07;100021.16;;;2.46;56.72
46223;BME280;31943;51.410;7.564;2023-12-04T02:02:33;100016.25;;;2.52;56.71
46223;BME280;31943;51.410;7.564;2023-12-04T02:04:59;100023.22;;;2.55;56.38
46223;BME280;31943;51.410;7.564;2023-12-04T02:07:26;100013.97;;;2.60;56.07
46223;BME280;31943;51.410;7.564;2023-12-04T02:09:53;100015.91;;;2.66;55.89
46223;BME280;31943;51.410;7.564;2023-12-04T02:12:19;100019.41;;;2.68;55.80
46223;BME280;31943;51.410;7.564;2023-12-04T02:14:44;100026.44;;;2.72;55.72
46223;BME280;31943;51.410;7.564;2023-12-04T02:17:11;100023.69;;;2.67;55.61
46223;BME280;31943;51.410;7.564;2023-12-04T02:19:38;100021.97;;;2.68;55.21
46223;BME280;31943;51.410;7.564;2023-12-04T02:22:03;100021.28;;;2.72;55.27
46223;BME280;31943;51.410;7.564;2023-12-04T02:24:31;100019.41;;;2.68;55.45
46223;BME280;31943;51.410;7.564;2023-12-04T02:26:59;100022.13;;;2.71;54.99
46223;BME280;31943;51.410;7.564;2023-12-04T02:29:32;100021.22;;;2.70;54.70
46223;BME280;31943;51.410;7.564;2023-12-04T02:32:04;100016.97;;;2.71;54.65
46223;BME280;31943;51.410;7.564;2023-12-04T02:34:32;100016.75;;;2.66;54.54
46223;BME280;31943;51.410;7.564;2023-12-04T02:36:59;100016.75;;;2.66;54.69
46223;BME280;31943;51.410;7.564;2023-12-04T02:39:25;100014.91;;;2.62;54.12
46223;BME280;31943;51.410;7.564;2023-12-04T02:41:52;100010.59;;;2.61;54.18
46223;BME280;31943;51.410;7.564;2023-12-04T02:44:18;100006.47;;;2.66;53.76
46223;BME280;31943;51.410;7.564;2023-12-04T02:46:43;100004.94;;;2.71;53.96
46223;BME280;31943;51.410;7.564;2023-12-04T02:49:10;100004.19;;;2.74;53.98
46223;BME280;31943;51.410;7.564;2023-12-04T02:51:36;99994.81;;;2.76;53.58
46223;BME280;31943;51.410;7.564;2023-12-04T02:54:03;99990.34;;;2.72;53.58
46223;BME280;31943;51.410;7.564;2023-12-04T02:56:28;99986.69;;;2.65;53.46
46223;BME280;31943;51.410;7.564;2023-12-04T02:58:55;99984.19;;;2.67;53.56
46223;BME280;31943;51.410;7.564;2023-12-04T03:01:21;99981.69;;;2.70;53.63
46223;BME280;31943;51.410;7.564;2023-12-04T03:03:46;99974.91;;;2.72;53.77
46223;BME280;31943;51.410;7.564;2023-12-04T03:06:12;99969.69;;;2.70;53.63
46223;BME280;31943;51.410;7.564;2023-12-04T03:08:37;99970.47;;;2.68;53.41
46223;BME280;31943;51.410;7.564;2023-12-04T03:11:03;99964.44;;;2.67;53.65
46223;BME280;31943;51.410;7.564;2023-12-04T03:13:30;99958.41;;;2.67;53.34
46223;BME280;31943;51.410;7.564;2023-12-04T03:15:57;99953.25;;;2.67;53.31
46223;BME280;31943;51.410;7.564;2023-12-04T03:18:23;99951.44;;;2.64;53.15
46223;BME280;31943;51.410;7.564;2023-12-04T03:20:48;99953.97;;;2.63;53.03
46223;BME280;31943;51.410;7.564;2023-12-04T03:23:14;99949.56;;;2.60;52.79
46223;BME280;31943;51.410;7.564;2023-12-04T03:25:39;99941.91;;;2.62;52.47
46223;BME280;31943;51.410;7.564;2023-12-04T03:28:05;99931.38;;;2.55;52.58
46223;BME280;31943;51.410;7.564;2023-12-04T03:30:30;99939.19;;;2.58;52.73
46223;BME280;31943;51.410;7.564;2023-12-04T03:32:58;99935.81;;;2.60;52.71
46223;BME280;31943;51.410;7.564;2023-12-04T03:35:23;99941.78;;;2.58;52.34
46223;BME280;31943;51.410;7.564;2023-12-04T03:37:49;99924.44;;;2.54;52.41
46223;BME280;31943;51.410;7.564;2023-12-04T03:40:14;99926.94;;;2.51;52.37
46223;BME280;31943;51.410;7.564;2023-12-04T03:42:40;99924.41;;;2.53;52.34
46223;BME280;31943;51.410;7.564;2023-12-04T03:45:06;99915.97;;;2.57;52.27
46223;BME280;31943;51.410;7.564;2023-12-04T03:47:32;99912.56;;;2.58;52.40
46223;BME280;31943;51.410;7.564;2023-12-04T03:49:59;99921.28;;;2.62;52.26
46223;BME280;31943;51.410;7.564;2023-12-04T03:52:25;99917.13;;;2.65;52.31
46223;BME280;31943;51.410;7.564;2023-12-04T03:54:51;99917.28;;;2.70;52.68
46223;BME280;31943;51.410;7.564;2023-12-04T03:57:17;99918.00;;;2.66;52.56
46223;BME280;31943;51.410;7.564;2023-12-04T03:59:44;99904.19;;;2.64;52.28
46223;BME280;31943;51.410;7.564;2023-12-04T04:02:10;99898.09;;;2.62;52.60
46223;BME280;31943;51.410;7.564;2023-12-04T04:04:35;99904.13;;;2.62;52.25
46223;BME280;31943;51.410;7.564;2023-12-04T04:07:03;99901.47;;;2.59;52.37
46223;BME280;31943;51.410;7.564;2023-12-04T04:09:29;99900.41;;;2.54;52.28
46223;BME280;31943;51.410;7.564;2023-12-04T04:11:54;99908.19;;;2.55;52.43
46223;BME280;31943;51.410;7.564;2023-12-04T04:14:20;99902.19;;;2.56;52.67
46223;BME280;31943;51.410;7.564;2023-12-04T04:16:45;99905.84;;;2.62;52.58
46223;BME280;31943;51.410;7.564;2023-12-04T04:19:11;99905.84;;;2.62;52.48
46223;BME280;31943;51.410;7.564;2023-12-04T04:21:39;99897.88;;;2.55;52.02
46223;BME280;31943;51.410;7.564;2023-12-04T04:24:07;99897.94;;;2.57;52.23
46223;BME280;31943;51.410;7.564;2023-12-04T04:26:32;99904.78;;;2.56;52.10
46223;BME280;31943;51.410;7.564;2023-12-04T04:28:58;99896.34;;;2.61;52.14
46223;BME280;31943;51.410;7.564;2023-12-04T04:31:24;99900.75;;;2.63;51.98
46223;BME280;31943;51.410;7.564;2023-12-04T04:33:50;99887.03;;;2.64;51.87
46223;BME280;31943;51.410;7.564;2023-12-04T04:36:16;99882.09;;;2.70;51.82
46223;BME280;31943;51.410;7.564;2023-12-04T04:38:42;99879.56;;;2.72;51.93
46223;BME280;31943;51.410;7.564;2023-12-04T04:41:14;99877.06;;;2.73;51.70
46223;BME280;31943;51.410;7.564;2023-12-04T04:43:40;99871.84;;;2.72;51.66
46223;BME280;31943;51.410;7.564;2023-12-04T04:46:06;99865.16;;;2.77;51.50
46223;BME280;31943;51.410;7.564;2023-12-04T04:48:31;99868.72;;;2.81;51.47
46223;BME280;31943;51.410;7.564;2023-12-04T04:50:57;99875.94;;;2.91;50.79
46223;BME280;31943;51.410;7.564;2023-12-04T04:53:22;99871.94;;;2.99;49.55
46223;BME280;31943;51.410;7.564;2023-12-04T04:55:48;99867.50;;;2.95;49.32
46223;BME280;31943;51.410;7.564;2023-12-04T04:58:15;99863.06;;;2.91;49.85
46223;BME280;31943;51.410;7.564;2023-12-04T05:00:41;99867.16;;;2.86;48.82
46223;BME280;31943;51.410;7.564;2023-12-04T05:03:07;99862.66;;;2.79;49.19
46223;BME280;31943;51.410;7.564;2023-12-04T05:05:33;99863.66;;;2.84;49.15
46223;BME280;31943;51.410;7.564;2023-12-04T05:07:58;99860.34;;;2.86;48.39
46223;BME280;31943;51.410;7.564;2023-12-04T05:10:24;99859.38;;;2.84;48.62
46223;BME280;31943;51.410;7.564;2023-12-04T05:12:50;99856.13;;;2.88;48.64
46223;BME280;31943;51.410;7.564;2023-12-04T05:15:17;99861.75;;;2.78;49.11
46223;BME280;31943;51.410;7.564;2023-12-04T05:17:42;99849.75;;;2.79;49.46
46223;BME280;31943;51.410;7.564;2023-12-04T05:20:09;99854.91;;;2.79;50.04
46223;BME280;31943;51.410;7.564;2023-12-04T05:22:34;99852.50;;;2.83;49.91
46223;BME280;31943;51.410;7.564;2023-12-04T05:25:01;99845.63;;;2.84;50.30
46223;BME280;31943;51.410;7.564;2023-12-04T05:27:27;99839.59;;;2.83;50.28
46223;BME280;31943;51.410;7.564;2023-12-04T05:29:53;99838.75;;;2.83;49.83
46223;BME280;31943;51.410;7.564;2023-12-04T05:32:21;99833.38;;;2.76;49.80
46223;BME280;31943;51.410;7.564;2023-12-04T05:34:48;99829.09;;;2.77;49.78
46223;BME280;31943;51.410;7.564;2023-12-04T05:37:14;99823.16;;;2.80;49.88
46223;BME280;31943;51.410;7.564;2023-12-04T05:39:41;99826.78;;;2.85;50.19
46223;BME280;31943;51.410;7.564;2023-12-04T05:42:06;99816.41;;;2.83;49.88
46223;BME280;31943;51.410;7.564;2023-12-04T05:44:33;99820.56;;;2.80;48.99
46223;BME280;31943;51.410;7.564;2023-12-04T05:46:58;99814.66;;;2.82;49.41
46223;BME280;31943;51.410;7.564;2023-12-04T05:49:25;99808.81;;;2.86;49.36
46223;BME280;31943;51.410;7.564;2023-12-04T05:51:51;99800.38;;;2.92;49.34
46223;BME280;31943;51.410;7.564;2023-12-04T05:54:17;99800.28;;;2.89;49.30
46223;BME280;31943;51.410;7.564;2023-12-04T05:56:42;99796.97;;;2.93;49.29
46223;BME280;31943;51.410;7.564;2023-12-04T05:59:08;99798.03;;;2.98;49.51
46223;BME280;31943;51.410;7.564;2023-12-04T06:01:35;99798.69;;;2.92;49.42
46223;BME280;31943;51.410;7.564;2023-12-04T06:04:01;99796.06;;;2.91;49.30
46223;BME280;31943;51.410;7.564;2023-12-04T06:06:29;99785.81;;;2.92;49.31
46223;BME280;31943;51.410;7.564;2023-12-04T06:08:55;99784.81;;;2.89;49.50
46223;BME280;31943;51.410;7.564;2023-12-04T06:11:21;99783.91;;;2.87;49.21
46223;BME280;31943;51.410;7.564;2023-12-04T06:13:47;99787.34;;;2.87;48.88
46223;BME280;31943;51.410;7.564;2023-12-04T06:16:14;99792.38;;;2.84;49.03
46223;BME280;31943;51.410;7.564;2023-12-04T06:18:40;99797.53;;;2.84;49.41
46223;BME280;31943;51.410;7.564;2023-12-04T06:21:06;99794.03;;;2.82;49.27
46223;BME280;31943;51.410;7.564;2023-12-04T06:23:34;99792.38;;;2.84;49.06
46223;BME280;31943;51.410;7.564;2023-12-04T06:26:00;99782.91;;;2.83;49.33
46223;BME280;31943;51.410;7.564;2023-12-04T06:28:26;99775.78;;;2.76;49.09
46223;BME280;31943;51.410;7.564;2023-12-04T06:30:52;99782.72;;;2.77;49.32
46223;BME280;31943;51.410;7.564;2023-12-04T06:33:19;99777.66;;;2.80;49.23
46223;BME280;31943;51.410;7.564;2023-12-04T06:35:44;99775.13;;;2.82;49.12
46223;BME280;31943;51.410;7.564;2023-12-04T06:38:14;99775.97;;;2.81;49.31
46223;BME280;31943;51.410;7.564;2023-12-04T06:40:42;99778.56;;;2.82;49.35
46223;BME280;31943;51.410;7.564;2023-12-04T06:43:08;99779.47;;;2.83;48.77
46223;BME280;31943;51.410;7.564;2023-12-04T06:45:34;99769.91;;;2.80;48.81
46223;BME280;31943;51.410;7.564;2023-12-04T06:48:00;99776.06;;;2.84;48.61
46223;BME280;31943;51.410;7.564;2023-12-04T06:50:26;99766.66;;;2.86;48.08
46223;BME280;31943;51.410;7.564;2023-12-04T06:52:53;99761.38;;;2.81;48.27
46223;BME280;31943;51.410;7.564;2023-12-04T06:55:19;99753.78;;;2.86;48.41
46223;BME280;31943;51.410;7.564;2023-12-04T06:57:46;99740.63;;;2.76;46.69
46223;BME280;31943;51.410;7.564;2023-12-04T07:00:12;99736.38;;;2.79;47.38
46223;BME280;31943;51.410;7.564;2023-12-04T07:02:39;99731.25;;;2.79;47.28
46223;BME280;31943;51.410;7.564;2023-12-04T07:05:05;99726.81;;;2.74;46.87
46223;BME280;31943;51.410;7.564;2023-12-04T07:07:32;99735.47;;;2.76;47.04
46223;BME280;31943;51.410;7.564;2023-12-04T07:09:58;99720.69;;;2.71;47.01
46223;BME280;31943;51.410;7.564;2023-12-04T07:12:24;99720.00;;;2.76;47.04
46223;BME280;31943;51.410;7.564;2023-12-04T07:14:51;99713.88;;;2.73;47.05
46223;BME280;31943;51.410;7.564;2023-12-04T07:17:17;99722.47;;;2.73;47.05
46223;BME280;31943;51.410;7.564;2023-12-04T07:19:43;99718.38;;;2.80;47.16
46223;BME280;31943;51.410;7.564;2023-12-04T07:22:09;99714.94;;;2.80;47.34
46223;BME280;31943;51.410;7.564;2023-12-04T07:24:35;99702.84;;;2.77;47.38
46223;BME280;31943;51.410;7.564;2023-12-04T07:27:02;99706.34;;;2.79;47.17
46223;BME280;31943;51.410;7.564;2023-12-04T07:29:28;99706.34;;;2.79;47.27
46223;BME280;31943;51.410;7.564;2023-12-04T07:31:55;99697.88;;;2.83;47.57
46223;BME280;31943;51.410;7.564;2023-12-04T07:34:21;99695.34;;;2.85;47.57
46223;BME280;31943;51.410;7.564;2023-12-04T07:36:46;99696.97;;;2.81;47.24
46223;BME280;31943;51.410;7.564;2023-12-04T07:39:12;99690.75;;;2.74;47.12
46223;BME280;31943;51.410;7.564;2023-12-04T07:41:38;99693.06;;;2.67;46.65
46223;BME280;31943;51.410;7.564;2023-12-04T07:44:04;99696.19;;;2.58;46.16
46223;BME280;31943;51.410;7.564;2023-12-04T07:46:30;99677.44;;;2.62;46.53
46223;BME280;31943;51.410;7.564;2023-12-04T07:48:58;99674.97;;;2.65;46.81
46223;BME280;31943;51.410;7.564;2023-12-04T07:51:24;99678.38;;;2.64;46.75
46223;BME280;31943;51.410;7.564;2023-12-04T07:53:50;99678.38;;;2.64;46.66
46223;BME280;31943;51.410;7.564;2023-12-04T07:56:16;99679.34;;;2.68;47.03
46223;BME280;31943;51.410;7.564;2023-12-04T07:58:42;99675.97;;;2.69;47.32
46223;BME280;31943;51.410;7.564;2023-12-04T08:01:08;99678.72;;;2.75;47.32
46223;BME280;31943;51.410;7.564;2023-12-04T08:03:35;99668.38;;;2.73;47.39
46223;BME280;31943;51.410;7.564;2023-12-04T08:06:03;99660.81;;;2.80;47.64
46223;BME280;31943;51.410;7.564;2023-12-04T08:08:29;99670.31;;;2.81;46.76
46223;BME280;31943;51.410;7.564;2023-12-04T08:10:55;99664.44;;;2.85;47.28
46223;BME280;31943;51.410;7.564;2023-12-04T08:13:20;99672.22;;;2.86;47.34
46223;BME280;31943;51.410;7.564;2023-12-04T08:15:47;99669.00;;;2.93;47.28
46223;BME280;31943;51.410;7.564;2023-12-04T08:18:13;99666.59;;;3.00;47.33
46223;BME280;31943;51.410;7.564;2023-12-04T08:20:39;99664.19;;;3.04;47.58
46223;BME280;31943;51.410;7.564;2023-12-04T08:23:07;99659.16;;;3.09;47.46
46223;BME280;31943;51.410;7.564;2023-12-04T08:25:34;99656.63;;;3.10;47.89
46223;BME280;31943;51.410;7.564;2023-12-04T08:28:00;99657.44;;;3.09;47.62
46223;BME280;31943;51.410;7.564;2023-12-04T08:30:26;99654.84;;;3.08;47.69
46223;BME280;31943;51.410;7.564;2023-12-04T08:32:53;99648.91;;;3.10;47.56
46223;BME280;31943;51.410;7.564;2023-12-04T08:35:19;99653.22;;;3.11;47.59
46223;BME280;31943;51.410;7.564;2023-12-04T08:37:45;99646.44;;;3.15;47.50
46223;BME280;31943;51.410;7.564;2023-12-04T08:40:12;99647.47;;;3.20;47.35
46223;BME280;31943;51.410;7.564;2023-12-04T08:42:38;99648.34;;;3.21;47.54
46223;BME280;31943;51.410;7.564;2023-12-04T08:45:05;99641.53;;;3.23;47.66
46223;BME280;31943;51.410;7.564;2023-12-04T08:47:31;99648.22;;;3.16;47.20
46223;BME280;31943;51.410;7.564;2023-12-04T08:49:56;99638.88;;;3.20;47.00
46223;BME280;31943;51.410;7.564;2023-12-04T08:52:23;99649.13;;;3.18;46.93
46223;BME280;31943;51.410;7.564;2023-12-04T08:54:49;99647.47;;;3.20;46.62
46223;BME280;31943;51.410;7.564;2023-12-04T08:57:16;99647.53;;;3.23;46.73
46223;BME280;31943;51.410;7.564;2023-12-04T08:59:42;99644.03;;;3.21;46.27
46223;BME280;31943;51.410;7.564;2023-12-04T09:02:11;99652.69;;;3.23;46.77
46223;BME280;31943;51.410;7.564;2023-12-04T09:04:37;99644.38;;;3.32;46.79
46223;BME280;31943;51.410;7.564;2023-12-04T09:07:03;99640.13;;;3.34;46.59
46223;BME280;31943;51.410;7.564;2023-12-04T09:09:31;99635.97;;;3.39;46.77
46223;BME280;31943;51.410;7.564;2023-12-04T09:11:58;99634.34;;;3.43;46.40
46223;BME280;31943;51.410;7.564;2023-12-04T09:14:27;99627.63;;;3.48;46.47
46223;BME280;31943;51.410;7.564;2023-12-04T09:16:53;99625.28;;;3.55;46.40
46223;BME280;31943;51.410;7.564;2023-12-04T09:19:18;99626.16;;;3.56;46.05
46223;BME280;31943;51.410;7.564;2023-12-04T09:21:44;99624.59;;;3.61;46.22
46223;BME280;31943;51.410;7.564;2023-12-04T09:24:10;99616.16;;;3.67;46.16
46223;BME280;31943;51.410;7.564;2023-12-04T09:26:36;99614.25;;;3.61;46.06
46223;BME280;31943;51.410;7.564;2023-12-04T09:29:02;99612.50;;;3.60;46.33
46223;BME280;31943;51.410;7.564;2023-12-04T09:31:29;99612.53;;;3.62;46.52
46223;BME280;31943;51.410;7.564;2023-12-04T09:33:55;99609.81;;;3.55;46.29
46223;BME280;31943;51.410;7.564;2023-12-04T09:36:20;99617.50;;;3.54;46.34
46223;BME280;31943;51.410;7.564;2023-12-04T09:38:46;99607.22;;;3.55;46.26
46223;BME280;31943;51.410;7.564;2023-12-04T09:41:12;99616.03;;;3.64;46.01
46223;BME280;31943;51.410;7.564;2023-12-04T09:43:39;99601.47;;;3.66;46.35
46223;BME280;31943;51.410;7.564;2023-12-04T09:46:05;99598.84;;;3.64;45.70
46223;BME280;31943;51.410;7.564;2023-12-04T09:48:34;99596.31;;;3.66;46.16
46223;BME280;31943;51.410;7.564;2023-12-04T09:51:01;99588.63;;;3.67;45.98
46223;BME280;31943;51.410;7.564;2023-12-04T09:53:27;99585.03;;;3.62;46.07
46223;BME280;31943;51.410;7.564;2023-12-04T09:55:58;99575.59;;;3.63;46.37
46223;BME280;31943;51.410;7.564;2023-12-04T09:58:26;99564.34;;;3.61;46.40
46223;BME280;31943;51.410;7.564;2023-12-04T10:00:54;99564.50;;;3.65;46.18
46223;BME280;31943;51.410;7.564;2023-12-04T10:03:21;99565.50;;;3.72;46.65
46223;BME280;31943;51.410;7.564;2023-12-04T10:05:55;99561.25;;;3.72;46.62
46223;BME280;31943;51.410;7.564;2023-12-04T10:08:21;99561.34;;;3.77;46.76
46223;BME280;31943;51.410;7.564;2023-12-04T10:10:51;99555.34;;;3.78;47.04
46223;BME280;31943;51.410;7.564;2023-12-04T10:13:17;99555.53;;;3.84;47.14
46223;BME280;31943;51.410;7.564;2023-12-04T10:15:48;99548.69;;;3.86;47.50
46223;BME280;31943;51.410;7.564;2023-12-04T10:18:24;99553.88;;;3.88;47.69
46223;BME280;31943;51.410;7.564;2023-12-04T10:20:54;99547.09;;;3.91;47.56
46223;BME280;31943;51.410;7.564;2023-12-04T10:23:22;99536.81;;;3.93;46.77
46223;BME280;31943;51.410;7.564;2023-12-04T10:25:51;99535.16;;;3.95;46.92
46223;BME280;31943;51.410;7.564;2023-12-04T10:28:18;99530.06;;;3.98;46.73
46223;BME280;31943;51.410;7.564;2023-12-04T10:30:45;99519.00;;;4.04;46.99
46223;BME280;31943;51.410;7.564;2023-12-04T10:33:11;99516.16;;;3.93;46.16
46223;BME280;31943;51.410;7.564;2023-12-04T10:35:39;99517.88;;;3.92;46.71
46223;BME280;31943;51.410;7.564;2023-12-04T10:38:08;99511.81;;;3.90;47.21
46223;BME280;31943;51.410;7.564;2023-12-04T10:40:36;99509.22;;;3.90;47.63
46223;BME280;31943;51.410;7.564;2023-12-04T10:43:14;99510.09;;;3.91;47.35
46223;BME280;31943;51.410;7.564;2023-12-04T10:45:41;99504.97;;;3.92;47.24
46223;BME280;31943;51.410;7.564;2023-12-04T10:48:08;99505.69;;;3.87;46.89
46223;BME280;31943;51.410;7.564;2023-12-04T10:50:37;99509.84;;;3.82;47.40
46223;BME280;31943;51.410;7.564;2023-12-04T10:53:04;99504.63;;;3.79;47.39
46223;BME280;31943;51.410;7.564;2023-12-04T10:55:31;99497.09;;;3.86;47.76
46223;BME280;31943;51.410;7.564;2023-12-04T10:58:01;99488.38;;;3.83;47.71
46223;BME280;31943;51.410;7.564;2023-12-04T11:00:28;99485.09;;;3.90;48.05
46223;BME280;31943;51.410;7.564;2023-12-04T11:02:56;99469.78;;;3.96;48.33
46223;BME280;31943;51.410;7.564;2023-12-04T11:05:27;99476.59;;;3.92;48.30
46223;BME280;31943;51.410;7.564;2023-12-04T11:07:56;99472.28;;;3.93;48.68
46223;BME280;31943;51.410;7.564;2023-12-04T11:10:22;99472.19;;;3.88;48.47
46223;BME280;31943;51.410;7.564;2023-12-04T11:12:56;99459.28;;;3.88;48.97
46223;BME280;31943;51.410;7.564;2023-12-04T11:15:23;99443.69;;;3.85;48.98
46223;BME280;31943;51.410;7.564;2023-12-04T11:17:53;99457.38;;;3.81;49.00
46223;BME280;31943;51.410;7.564;2023-12-04T11:20:21;99452.16;;;3.80;49.14
46223;BME280;31943;51.410;7.564;2023-12-04T11:22:50;99451.53;;;3.88;49.58
46223;BME280;31943;51.410;7.564;2023-12-04T11:25:17;99442.00;;;3.86;49.65
46223;BME280;31943;51.410;7.564;2023-12-04T11:27:43;99439.41;;;3.84;49.58
46223;BME280;31943;51.410;7.564;2023-12-04T11:30:12;99441.84;;;3.80;49.86
46223;BME280;31943;51.410;7.564;2023-12-04T11:32:44;99442.84;;;3.85;49.90
46223;BME280;31943;51.410;7.564;2023-12-04T11:35:12;99443.69;;;3.85;49.95
46223;BME280;31943;51.410;7.564;2023-12-04T11:37:41;99441.75;;;3.75;50.19
46223;BME280;31943;51.410;7.564;2023-12-04T11:40:08;99433.09;;;3.73;50.62
46223;BME280;31943;51.410;7.564;2023-12-04T11:42:36;99443.50;;;3.78;50.68
46223;BME280;31943;51.410;7.564;2023-12-04T11:45:03;99436.78;;;3.83;50.71
46223;BME280;31943;51.410;7.564;2023-12-04T11:47:48;99436.78;;;3.83;50.74
46223;BME280;31943;51.410;7.564;2023-12-04T11:50:14;99442.84;;;3.85;50.83
46223;BME280;31943;51.410;7.564;2023-12-04T11:52:40;99436.69;;;3.80;51.10
46223;BME280;31943;51.410;7.564;2023-12-04T11:55:06;99441.06;;;3.84;51.29
46223;BME280;31943;51.410;7.564;2023-12-04T11:57:36;99437.59;;;3.82;51.64
46223;BME280;31943;51.410;7.564;2023-12-04T12:00:09;99435.72;;;3.76;52.02
46223;BME280;31943;51.410;7.564;2023-12-04T12:02:40;99427.22;;;3.79;52.25
46223;BME280;31943;51.410;7.564;2023-12-04T12:05:07;99426.41;;;3.81;52.48
46223;BME280;31943;51.410;7.564;2023-12-04T12:07:33;99419.66;;;3.86;52.57
46223;BME280;31943;51.410;7.564;2023-12-04T12:10:00;99436.88;;;3.87;52.82
46223;BME280;31943;51.410;7.564;2023-12-04T12:12:28;99426.66;;;3.92;52.72
46223;BME280;31943;51.410;7.564;2023-12-04T12:14:54;99432.50;;;3.85;53.10
46223;BME280;31943;51.410;7.564;2023-12-04T12:17:20;99428.94;;;3.80;53.51
46223;BME280;31943;51.410;7.564;2023-12-04T12:19:47;99425.59;;;3.84;53.57
46223;BME280;31943;51.410;7.564;2023-12-04T12:22:14;99414.31;;;3.80;53.77
46223;BME280;31943;51.410;7.564;2023-12-04T12:24:40;99421.19;;;3.80;53.93
46223;BME280;31943;51.410;7.564;2023-12-04T12:27:06;99421.25;;;3.81;54.14
46223;BME280;31943;51.410;7.564;2023-12-04T12:29:35;99407.53;;;3.84;54.16
46223;BME280;31943;51.410;7.564;2023-12-04T12:32:02;99412.81;;;3.88;54.35
46223;BME280;31943;51.410;7.564;2023-12-04T12:34:28;99409.47;;;3.92;54.81
46223;BME280;31943;51.410;7.564;2023-12-04T12:36:55;99400.22;;;4.04;54.36
46223;BME280;31943;51.410;7.564;2023-12-04T12:39:22;99394.34;;;4.08;54.67
46223;BME280;31943;51.410;7.564;2023-12-04T12:41:49;99386.78;;;4.17;54.61
46223;BME280;31943;51.410;7.564;2023-12-04T12:44:15;99380.66;;;4.13;55.07
46223;BME280;31943;51.410;7.564;2023-12-04T12:46:46;99376.34;;;4.12;54.83
46223;BME280;31943;51.410;7.564;2023-12-04T12:49:14;99373.94;;;4.20;54.92
46223;BME280;31943;51.410;7.564;2023-12-04T12:51:40;99361.03;;;4.20;55.16
46223;BME280;31943;51.410;7.564;2023-12-04T12:54:08;99356.72;;;4.21;55.21
46223;BME280;31943;51.410;7.564;2023-12-04T12:56:33;99351.53;;;4.19;55.29
46223;BME280;31943;51.410;7.564;2023-12-04T12:59:00;99352.41;;;4.20;55.41
46223;BME280;31943;51.410;7.564;2023-12-04T13:01:30;99349.66;;;4.12;55.32
46223;BME280;31943;51.410;7.564;2023-12-04T13:03:56;99341.88;;;4.10;55.65